Brighton Beach, South Carolina
Current Conditions -  °F | °C
As of 3:50 PM on Friday 31 Oct 2014 (Local Time) from KHXD Reporting Station
Clear Clear  
Wind Chill: 72°   Ceiling: Unl
Heat Index: 72°   Visibility: 10mi
Dew Point: 46°   Wind: 9mph
Humidity: 41%   Direction: 360°N
Pressure: 29.81"   Gusts: NA
Location:  32.2133°N, 80.9033°W
Report Text: KHXD 311950Z 36008KT 10SM 10SM SKC 22/08 A2981
Loading
Personal Weather Stations






























Interactive Weather Map
Tropical Storm Tracking
New forecast layout! Learn more

10-Day Weather Forecast

Advertisements
Track Severe Weather on mobile